createdAt,value
2023-01-19T00:02:14.493Z,75.45
2023-01-19T00:05:20.960Z,64.52
2023-01-19T00:08:27.532Z,58.84
2023-01-19T00:11:33.376Z,56.07
2023-01-19T00:14:40.076Z,51.88
2023-01-19T00:17:48.496Z,49.08
2023-01-19T00:20:55.108Z,49.94
2023-01-19T00:24:00.852Z,48.10
2023-01-19T00:27:07.702Z,46.80
2023-01-19T00:30:15.419Z,46.44
2023-01-19T00:33:26.118Z,46.57
2023-01-19T00:36:32.091Z,45.56
2023-01-19T00:39:38.930Z,51.71
2023-01-19T00:42:48.488Z,52.62
2023-01-19T00:45:55.246Z,51.78
2023-01-19T00:49:03.662Z,48.73
2023-01-19T00:52:10.994Z,50.06
2023-01-19T00:55:19.490Z,47.54
2023-01-19T00:58:26.183Z,47.23
2023-01-19T01:01:45.907Z,45.91
2023-01-19T01:04:56.901Z,43.97
2023-01-19T01:08:02.870Z,46.17
2023-01-19T01:11:09.480Z,45.70
2023-01-19T01:14:16.653Z,46.38
2023-01-19T01:17:25.125Z,44.50
2023-01-19T01:20:34.930Z,46.48
2023-01-19T01:23:41.595Z,47.05
2023-01-19T01:26:47.446Z,48.92
2023-01-19T01:29:54.200Z,49.45
2023-01-19T01:33:00.358Z,49.89
2023-01-19T01:36:12.061Z,52.12
2023-01-19T01:39:18.059Z,52.81
2023-01-19T01:42:32.774Z,55.34
2023-01-19T01:45:42.021Z,56.37
2023-01-19T01:48:57.444Z,56.71
2023-01-19T01:52:06.315Z,56.76
2023-01-19T01:55:16.802Z,55.56
2023-01-19T01:58:22.705Z,54.40
2023-01-19T02:01:41.846Z,52.23
2023-01-19T02:04:55.119Z,50.27
2023-01-19T02:08:24.324Z,48.51
2023-01-19T02:11:45.335Z,47.81
2023-01-19T02:14:52.016Z,48.13
2023-01-19T02:17:58.728Z,49.68
2023-01-19T02:21:19.055Z,52.96
2023-01-19T02:24:29.629Z,89.05
2023-01-19T02:27:37.984Z,74.81
2023-01-19T02:30:45.578Z,58.04
2023-01-19T02:33:53.048Z,61.41
2023-01-19T02:37:06.818Z,66.46
2023-01-19T02:40:24.619Z,66.52
2023-01-19T02:43:33.784Z,65.55
2023-01-19T02:46:42.233Z,64.20
2023-01-19T02:49:48.189Z,65.71
2023-01-19T02:53:11.069Z,65.26
2023-01-19T02:56:56.046Z,63.09
2023-01-19T03:00:24.838Z,63.96
2023-01-19T03:03:42.365Z,68.65
2023-01-19T03:06:58.274Z,70.18
2023-01-19T03:10:16.073Z,79.41
2023-01-19T03:13:39.319Z,71.49
2023-01-19T03:16:50.953Z,68.40
2023-01-19T03:19:57.668Z,63.04
2023-01-19T03:23:11.215Z,58.36
2023-01-19T03:26:24.993Z,58.88
2023-01-19T03:29:38.133Z,57.15
2023-01-19T03:32:53.861Z,59.81
2023-01-19T03:36:07.268Z,66.57
2023-01-19T03:39:22.083Z,71.36
2023-01-19T03:42:31.292Z,70.69
2023-01-19T03:45:43.471Z,69.51
2023-01-19T03:48:51.055Z,69.18
2023-01-19T03:51:59.660Z,69.72
2023-01-19T03:55:09.983Z,68.81
2023-01-19T03:58:17.469Z,67.92
2023-01-19T04:01:26.453Z,68.94
2023-01-19T04:04:34.136Z,67.86
2023-01-19T04:07:39.953Z,66.75
2023-01-19T04:10:46.610Z,63.25
2023-01-19T04:13:52.795Z,60.52
2023-01-19T04:17:02.212Z,58.62
2023-01-19T04:20:10.791Z,61.15
2023-01-19T04:23:17.355Z,60.98
2023-01-19T04:26:23.271Z,57.84
2023-01-19T04:29:29.990Z,54.16
2023-01-19T04:32:38.461Z,57.73
2023-01-19T04:35:45.182Z,71.04
2023-01-19T04:38:51.237Z,79.88
2023-01-19T04:41:57.837Z,79.38
2023-01-19T04:45:03.873Z,77.34
2023-01-19T04:48:13.064Z,77.11
2023-01-19T04:51:18.838Z,83.56
2023-01-19T04:54:25.934Z,84.80
2023-01-19T04:57:32.003Z,86.19
2023-01-19T05:00:39.612Z,98.43
2023-01-19T05:03:48.087Z,108.93
2023-01-19T05:06:54.917Z,108.67
2023-01-19T05:10:00.868Z,114.68
2023-01-19T05:13:08.174Z,123.86
2023-01-19T05:16:14.291Z,118.40
2023-01-19T05:19:23.831Z,112.49
2023-01-19T05:22:29.814Z,110.33
2023-01-19T05:25:36.523Z,98.46
2023-01-19T05:28:42.463Z,87.40
2023-01-19T05:31:49.266Z,88.43
2023-01-19T05:34:57.809Z,100.45
2023-01-19T05:38:04.456Z,102.91
2023-01-19T05:41:10.292Z,105.33
2023-01-19T05:44:17.122Z,104.60
2023-01-19T05:47:22.905Z,102.29
2023-01-19T05:50:32.280Z,99.35
2023-01-19T05:53:38.136Z,90.76
2023-01-19T05:56:45.743Z,95.66
2023-01-19T05:59:51.598Z,106.18
2023-01-19T06:02:58.458Z,88.45
2023-01-19T06:06:07.964Z,85.97
2023-01-19T06:09:14.531Z,85.40
2023-01-19T06:12:20.316Z,85.78
2023-01-19T06:15:26.855Z,84.40
2023-01-19T06:18:33.648Z,80.94
2023-01-19T06:21:43.125Z,80.97
2023-01-19T06:24:49.024Z,88.53
2023-01-19T06:27:56.153Z,85.73
2023-01-19T06:31:01.989Z,90.04
2023-01-19T06:34:08.635Z,93.60
2023-01-19T06:37:17.864Z,94.23
2023-01-19T06:40:24.429Z,93.78
2023-01-19T06:43:33.549Z,95.67
2023-01-19T06:46:40.207Z,96.76
2023-01-19T06:49:46.797Z,94.29
2023-01-19T06:52:56.959Z,93.58
2023-01-19T06:56:05.104Z,94.90
2023-01-19T06:59:12.779Z,92.34
2023-01-19T07:06:10.363Z,99.20
2023-01-19T07:09:34.608Z,99.80
2023-01-19T07:12:42.410Z,96.32
2023-01-19T07:15:50.272Z,95.28
2023-01-19T07:18:56.319Z,95.18
2023-01-19T07:22:03.368Z,98.23
2023-01-19T07:25:13.363Z,97.43
2023-01-19T07:28:21.337Z,98.60
2023-01-19T07:31:27.693Z,97.98
2023-01-19T07:34:41.805Z,96.57
2023-01-19T07:41:46.011Z,97.97
2023-01-19T07:44:54.353Z,95.13
2023-01-19T07:48:00.717Z,95.59
2023-01-19T07:51:13.067Z,95.67
2023-01-19T07:54:20.942Z,93.64
2023-01-19T07:57:34.394Z,94.80
2023-01-19T08:00:42.176Z,91.66
2023-01-19T08:03:51.861Z,88.68
2023-01-19T08:07:01.986Z,85.63
2023-01-19T08:10:11.016Z,85.17
2023-01-19T08:13:19.481Z,85.89
2023-01-19T08:16:26.044Z,78.74
2023-01-19T08:19:34.365Z,78.90
2023-01-19T08:22:41.084Z,78.84
2023-01-19T08:25:47.701Z,76.82
2023-01-19T08:28:57.945Z,78.52
2023-01-19T08:32:04.043Z,79.94
2023-01-19T08:35:12.069Z,76.63
2023-01-19T08:38:21.199Z,70.22
2023-01-19T08:41:28.072Z,70.46
2023-01-19T08:44:39.393Z,68.20
2023-01-19T08:47:48.145Z,65.13
2023-01-19T08:50:56.296Z,63.47
2023-01-19T08:54:02.919Z,64.78
2023-01-19T08:57:08.624Z,65.88
2023-01-19T09:00:19.796Z,67.17
2023-01-19T09:03:26.030Z,68.41
2023-01-19T09:06:32.931Z,66.47
2023-01-19T09:09:43.543Z,64.04
2023-01-19T09:12:50.568Z,60.88
2023-01-19T09:15:59.055Z,60.30
2023-01-19T09:19:08.708Z,59.61
2023-01-19T09:22:14.717Z,59.72
2023-01-19T09:25:21.350Z,59.70
2023-01-19T09:28:27.306Z,56.95
2023-01-19T09:31:36.651Z,56.79
2023-01-19T09:34:42.708Z,86.15
2023-01-19T09:37:50.309Z,53.15
2023-01-19T09:40:59.422Z,50.76
2023-01-19T09:44:06.715Z,48.13
2023-01-19T09:47:25.400Z,49.69
2023-01-19T09:50:46.719Z,49.74
2023-01-19T09:54:06.093Z,48.87
2023-01-19T09:57:15.009Z,52.89
2023-01-19T10:00:22.876Z,50.95
2023-01-19T10:03:33.649Z,48.95
2023-01-19T10:06:40.079Z,51.48
2023-01-19T10:10:10.191Z,49.50
2023-01-19T10:13:42.195Z,49.19
2023-01-19T10:17:05.632Z,50.48
2023-01-19T10:20:26.937Z,52.66
2023-01-19T10:23:49.056Z,123.98
2023-01-19T10:27:00.083Z,55.36
2023-01-19T10:30:18.102Z,51.70
2023-01-19T10:33:24.135Z,52.31
2023-01-19T10:36:41.133Z,53.31
2023-01-19T10:39:49.065Z,50.55
2023-01-19T10:42:56.848Z,50.57
2023-01-19T10:46:03.293Z,52.24
2023-01-19T10:49:25.957Z,55.91
2023-01-19T10:52:41.374Z,51.99
2023-01-19T10:55:48.045Z,51.42
2023-01-19T10:58:54.874Z,53.77
2023-01-19T11:02:22.510Z,55.66
2023-01-19T11:05:32.581Z,58.60
2023-01-19T11:08:41.806Z,58.36
2023-01-19T11:11:52.368Z,51.84
2023-01-19T11:15:00.197Z,55.22
2023-01-19T11:18:10.383Z,162.39
2023-01-19T11:21:20.446Z,63.16
2023-01-19T11:24:29.540Z,53.54
2023-01-19T11:27:40.184Z,50.40
2023-01-19T11:30:59.459Z,50.05
2023-01-19T11:34:24.998Z,51.68
2023-01-19T11:37:34.893Z,56.83
2023-01-19T11:40:55.028Z,60.54
2023-01-19T11:44:12.923Z,56.72
2023-01-19T11:47:29.497Z,88.57
2023-01-19T11:50:45.567Z,58.28
2023-01-19T11:53:56.149Z,105.59
2023-01-19T11:57:17.800Z,91.86
2023-01-19T12:00:37.804Z,77.65
2023-01-19T12:03:54.864Z,104.19
2023-01-19T12:07:10.814Z,125.86
2023-01-19T12:10:28.840Z,113.14
2023-01-19T12:13:40.368Z,250.40
2023-01-19T12:16:48.866Z,150.40
2023-01-19T12:20:06.641Z,118.44
2023-01-19T12:23:38.229Z,124.92
2023-01-19T12:26:56.375Z,113.75
2023-01-19T12:30:07.260Z,111.19
2023-01-19T12:33:36.221Z,98.22
2023-01-19T12:36:44.162Z,70.33
2023-01-19T12:39:52.526Z,90.37
2023-01-19T12:43:08.735Z,74.93
2023-01-19T12:46:34.832Z,79.38
2023-01-19T12:49:48.659Z,67.44
2023-01-19T12:53:02.773Z,66.85
2023-01-19T12:56:12.936Z,53.57
2023-01-19T12:59:30.663Z,58.79
2023-01-19T13:02:58.972Z,52.76
2023-01-19T13:06:05.664Z,52.79
2023-01-19T13:09:33.498Z,40.32
2023-01-19T13:12:40.171Z,40.94
2023-01-19T13:15:47.334Z,42.07
2023-01-19T13:19:01.805Z,42.29
2023-01-19T13:22:53.130Z,42.25
2023-01-19T13:26:09.174Z,42.76
2023-01-19T13:29:25.969Z,124.54
2023-01-19T13:32:33.154Z,164.13
2023-01-19T13:35:41.909Z,69.23
2023-01-19T13:38:50.530Z,53.12
2023-01-19T13:42:03.012Z,53.83
2023-01-19T13:45:30.652Z,56.02
2023-01-19T13:48:37.270Z,49.95
2023-01-19T13:51:47.912Z,156.60
2023-01-19T13:55:02.357Z,118.21
2023-01-19T13:58:26.205Z,201.71
2023-01-19T14:01:33.170Z,164.76
2023-01-19T14:04:40.136Z,203.08
2023-01-19T14:07:48.637Z,118.03
2023-01-19T14:11:07.093Z,105.83
2023-01-19T14:14:27.574Z,128.39
2023-01-19T14:17:35.789Z,416.06
2023-01-19T14:20:42.725Z,160.95
2023-01-19T14:23:57.132Z,369.95
2023-01-19T14:27:26.221Z,568.41
2023-01-19T14:30:35.278Z,136.34
2023-01-19T14:33:47.262Z,82.47
2023-01-19T14:36:55.520Z,178.70
2023-01-19T14:40:20.367Z,131.47
2023-01-19T14:43:28.744Z,79.75
2023-01-19T14:46:34.841Z,244.46
2023-01-19T14:49:50.259Z,127.93
2023-01-19T14:53:03.676Z,55.27
2023-01-19T14:56:13.587Z,117.75
2023-01-19T14:59:19.419Z,182.59
2023-01-19T15:02:26.181Z,82.50
2023-01-19T15:05:32.313Z,82.62
2023-01-19T15:08:39.209Z,66.51
2023-01-19T15:11:52.594Z,57.09
2023-01-19T15:15:00.150Z,57.00
2023-01-19T15:18:10.032Z,139.89
2023-01-19T15:21:20.214Z,54.40
2023-01-19T15:24:27.969Z,47.20
2023-01-19T15:27:37.118Z,51.71
2023-01-19T15:30:43.380Z,71.60
2023-01-19T15:33:50.945Z,109.32
2023-01-19T15:36:56.859Z,104.00
2023-01-19T15:40:03.554Z,132.15
2023-01-19T15:43:13.703Z,180.45
2023-01-19T15:46:23.837Z,135.15
2023-01-19T15:49:31.072Z,113.49
2023-01-19T15:52:37.565Z,160.76
2023-01-19T15:55:46.148Z,143.56
2023-01-19T15:58:56.374Z,114.82
2023-01-19T16:02:02.885Z,384.18
2023-01-19T16:05:11.159Z,237.27
2023-01-19T16:08:17.702Z,217.40
2023-01-19T16:11:24.291Z,156.23
2023-01-19T16:14:32.915Z,104.17
2023-01-19T16:17:40.025Z,126.69
2023-01-19T16:20:45.955Z,103.62
2023-01-19T16:23:52.785Z,95.04
2023-01-19T16:26:58.651Z,82.16
2023-01-19T16:30:10.049Z,75.53
2023-01-19T16:33:16.397Z,73.59
2023-01-19T16:36:27.020Z,75.27
2023-01-19T16:39:32.896Z,66.32
2023-01-19T16:42:40.908Z,55.34
2023-01-19T16:46:04.677Z,52.04
2023-01-19T16:49:17.863Z,50.47
2023-01-19T16:52:23.846Z,47.90
2023-01-19T16:55:30.419Z,48.26
2023-01-19T16:58:37.632Z,47.13
2023-01-19T17:01:50.595Z,45.99
2023-01-19T17:04:56.678Z,49.05
2023-01-19T17:08:03.502Z,48.87
2023-01-19T17:11:19.578Z,51.20
2023-01-19T17:14:26.163Z,53.19
2023-01-19T17:17:35.342Z,58.03
2023-01-19T17:20:43.459Z,59.35
2023-01-19T17:23:53.654Z,59.46
2023-01-19T17:27:00.444Z,80.14
2023-01-19T17:30:06.424Z,73.23
2023-01-19T17:33:15.909Z,80.47
2023-01-19T17:36:25.566Z,69.84
2023-01-19T17:39:32.458Z,66.56
2023-01-19T17:42:43.771Z,78.14
2023-01-19T17:45:50.367Z,96.94
2023-01-19T17:49:01.723Z,93.95
2023-01-19T17:52:08.829Z,82.78
2023-01-19T17:55:15.049Z,80.55
2023-01-19T17:58:23.734Z,81.01
2023-01-19T18:01:32.647Z,69.81
2023-01-19T18:04:43.534Z,66.57
2023-01-19T18:07:50.191Z,66.54
2023-01-19T18:11:14.279Z,63.75
2023-01-19T18:14:20.234Z,61.38
2023-01-19T18:17:26.791Z,72.57
2023-01-19T18:20:37.852Z,61.37
2023-01-19T18:23:46.002Z,54.51
2023-01-19T18:26:53.218Z,57.29
2023-01-19T18:30:01.549Z,62.77
2023-01-19T18:33:07.731Z,72.56
2023-01-19T18:36:18.318Z,79.34
2023-01-19T18:39:24.238Z,77.83
2023-01-19T18:42:30.942Z,97.27
2023-01-19T18:45:38.289Z,70.73
2023-01-19T18:48:45.333Z,63.50
2023-01-19T18:51:53.850Z,93.30
2023-01-19T18:55:00.568Z,95.17
2023-01-19T18:58:07.279Z,88.65
2023-01-19T19:01:32.264Z,91.65
2023-01-19T19:04:38.729Z,64.87
2023-01-19T19:07:48.313Z,67.62
2023-01-19T19:10:54.411Z,69.40
2023-01-19T19:14:04.825Z,78.99
2023-01-19T19:17:11.007Z,85.40
2023-01-19T19:20:18.130Z,62.19
2023-01-19T19:23:26.769Z,59.81
2023-01-19T19:26:33.326Z,69.44
2023-01-19T19:29:39.213Z,71.05
2023-01-19T19:32:45.731Z,76.57
2023-01-19T19:35:51.670Z,86.78
2023-01-19T19:39:02.795Z,72.76
2023-01-19T19:42:08.762Z,75.45
2023-01-19T19:45:16.130Z,68.91
2023-01-19T19:48:23.136Z,74.79
2023-01-19T19:51:31.282Z,110.81
2023-01-19T19:54:42.092Z,90.57
2023-01-19T19:57:48.915Z,124.91
2023-01-19T20:00:55.236Z,101.35
2023-01-19T20:04:10.971Z,87.65
2023-01-19T20:07:18.032Z,124.52
2023-01-19T20:10:30.145Z,119.67
2023-01-19T20:13:37.316Z,126.67
2023-01-19T20:16:43.972Z,97.73
2023-01-19T20:19:49.999Z,102.75
2023-01-19T20:22:56.673Z,93.38
2023-01-19T20:26:08.111Z,104.39
2023-01-19T20:29:15.212Z,125.75
2023-01-19T20:32:23.036Z,107.74
2023-01-19T20:35:29.874Z,94.96
2023-01-19T20:38:36.260Z,78.63
2023-01-19T20:41:46.315Z,67.21
2023-01-19T20:44:52.416Z,75.32
2023-01-19T20:47:59.115Z,69.07
2023-01-19T20:51:08.579Z,62.16
2023-01-19T20:54:17.850Z,65.33
2023-01-19T20:57:26.664Z,59.29
2023-01-19T21:00:33.429Z,58.03
2023-01-19T21:03:39.393Z,63.57
2023-01-19T21:06:48.052Z,74.02
2023-01-19T21:09:53.858Z,58.54
2023-01-19T21:13:03.031Z,58.29
2023-01-19T21:16:11.032Z,59.82
2023-01-19T21:19:18.101Z,57.32
2023-01-19T21:22:26.329Z,60.31
2023-01-19T21:25:37.477Z,60.77
2023-01-19T21:28:46.440Z,62.62
2023-01-19T21:31:57.552Z,75.96
2023-01-19T21:35:03.630Z,71.28
2023-01-19T21:38:10.784Z,61.91
2023-01-19T21:41:17.364Z,56.21
2023-01-19T21:44:26.818Z,61.16
2023-01-19T21:47:32.684Z,65.06
2023-01-19T21:50:39.861Z,66.68
2023-01-19T21:53:47.363Z,64.10
2023-01-19T21:56:54.197Z,64.76
2023-01-19T22:00:02.684Z,60.24
2023-01-19T22:03:14.721Z,60.97
2023-01-19T22:06:20.697Z,65.57
2023-01-19T22:09:27.345Z,60.62
2023-01-19T22:12:33.255Z,61.59
2023-01-19T22:15:42.551Z,62.45
2023-01-19T22:18:54.215Z,71.84
2023-01-19T22:22:02.351Z,67.07
2023-01-19T22:25:09.482Z,70.41
2023-01-19T22:28:16.216Z,74.78
2023-01-19T22:31:26.305Z,59.68
2023-01-19T22:34:32.986Z,58.40
2023-01-19T22:37:40.155Z,61.40
2023-01-19T22:40:46.720Z,59.68
2023-01-19T22:43:56.680Z,56.71
2023-01-19T22:47:05.853Z,54.39
2023-01-19T22:50:13.511Z,58.25
2023-01-19T22:53:20.073Z,56.06
2023-01-19T22:56:28.944Z,57.71
2023-01-19T22:59:35.617Z,55.97
2023-01-19T23:02:44.053Z,54.62
2023-01-19T23:05:50.748Z,53.27
2023-01-19T23:09:00.491Z,53.88
2023-01-19T23:12:08.009Z,54.58
2023-01-19T23:15:14.909Z,55.20
2023-01-19T23:18:24.241Z,54.37
2023-01-19T23:21:33.558Z,53.92
2023-01-19T23:24:40.402Z,53.31
2023-01-19T23:27:46.247Z,54.72
2023-01-19T23:30:53.031Z,58.72
2023-01-19T23:34:05.034Z,65.10
2023-01-19T23:37:12.027Z,61.40
2023-01-19T23:40:18.314Z,59.33
2023-01-19T23:43:24.894Z,59.01
2023-01-19T23:46:31.396Z,61.20
2023-01-19T23:49:41.355Z,63.61
2023-01-19T23:52:47.310Z,61.98
2023-01-19T23:55:53.950Z,59.32
2023-01-19T23:59:02.792Z,61.24
